createdAt,value
2022-10-18T00:01:01.968Z,82.85
2022-10-18T00:03:45.282Z,83.03
2022-10-18T00:06:33.963Z,82.10
2022-10-18T00:09:16.269Z,86.82
2022-10-18T00:12:05.968Z,86.78
2022-10-18T00:14:48.242Z,84.10
2022-10-18T00:17:37.036Z,95.13
2022-10-18T00:20:20.676Z,89.75
2022-10-18T00:23:09.970Z,82.95
2022-10-18T00:25:52.259Z,84.82
2022-10-18T00:29:35.926Z,91.65
2022-10-18T00:32:34.486Z,84.65
2022-10-18T00:35:16.965Z,83.75
2022-10-18T00:38:06.975Z,86.65
2022-10-18T00:40:49.404Z,81.63
2022-10-18T00:43:38.030Z,88.32
2022-10-18T00:46:20.243Z,85.00
2022-10-18T00:49:29.937Z,87.35
2022-10-18T00:52:58.864Z,84.55
2022-10-18T00:55:47.940Z,87.82
2022-10-18T00:58:30.260Z,83.55
2022-10-18T01:01:18.986Z,84.80
2022-10-18T01:04:08.962Z,85.30
2022-10-18T01:07:06.251Z,89.95
2022-10-18T01:10:09.024Z,81.43
2022-10-18T01:13:28.536Z,86.82
2022-10-18T01:16:36.038Z,78.03
2022-10-18T01:19:39.352Z,91.82
2022-10-18T01:22:37.034Z,91.40
2022-10-18T01:25:56.956Z,87.25
2022-10-18T01:28:58.261Z,85.10
2022-10-18T01:32:14.134Z,77.80
2022-10-18T01:34:58.959Z,83.38
2022-10-18T01:37:50.951Z,84.85
2022-10-18T01:40:34.234Z,81.38
2022-10-18T01:43:25.006Z,81.32
2022-10-18T01:46:08.354Z,78.78
2022-10-18T01:48:57.061Z,79.00
2022-10-18T01:51:41.416Z,98.93
2022-10-18T01:54:46.973Z,99.68
2022-10-18T01:57:32.243Z,90.88
2022-10-18T02:00:31.939Z,94.10
2022-10-18T02:03:31.254Z,82.53
2022-10-18T02:06:34.952Z,93.25
2022-10-18T02:09:28.326Z,82.45
2022-10-18T02:12:21.929Z,90.10
2022-10-18T02:15:05.256Z,84.07
2022-10-18T02:17:54.944Z,90.13
2022-10-18T02:20:38.197Z,93.07
2022-10-18T02:23:30.950Z,85.20
2022-10-18T02:26:20.934Z,78.57
2022-10-18T02:29:03.961Z,84.70
2022-10-18T02:32:00.954Z,84.75
2022-10-18T02:35:15.698Z,87.13
2022-10-18T02:38:06.975Z,79.15
2022-10-18T02:40:55.978Z,89.45
2022-10-18T02:43:38.295Z,89.53
2022-10-18T02:46:28.951Z,82.13
2022-10-18T02:49:17.953Z,88.88
2022-10-18T02:52:00.244Z,90.38
2022-10-18T02:54:49.347Z,82.28
2022-10-18T02:57:32.019Z,90.40
2022-10-18T03:00:21.949Z,92.95
2022-10-18T03:03:16.938Z,86.93
2022-10-18T03:06:05.200Z,102.70
2022-10-18T03:08:47.011Z,84.45
2022-10-18T03:11:36.304Z,88.30
2022-10-18T03:14:18.231Z,82.90
2022-10-18T03:17:00.281Z,87.85
2022-10-18T03:19:48.934Z,471.42
2022-10-18T03:22:31.116Z,111.82
2022-10-18T03:25:19.931Z,97.35
2022-10-18T03:28:08.950Z,118.35
2022-10-18T03:31:03.945Z,87.50
2022-10-18T03:33:46.158Z,102.28
2022-10-18T03:36:34.969Z,98.63
2022-10-18T03:39:17.146Z,110.72
2022-10-18T03:42:05.940Z,116.68
2022-10-18T03:44:48.087Z,125.20
2022-10-18T03:47:36.931Z,113.05
2022-10-18T03:50:25.958Z,89.95
2022-10-18T03:53:08.245Z,90.32
2022-10-18T03:56:03.926Z,118.50
2022-10-18T03:58:46.360Z,102.80
2022-10-18T04:01:35.310Z,109.47
2022-10-18T04:04:17.230Z,103.05
2022-10-18T04:07:05.938Z,103.95
2022-10-18T04:09:48.357Z,109.78
2022-10-18T04:12:36.926Z,107.20
2022-10-18T04:15:19.214Z,103.28
2022-10-18T04:18:07.951Z,117.82
2022-10-18T04:20:56.927Z,95.63
2022-10-18T04:23:45.924Z,89.78
2022-10-18T04:26:28.370Z,100.53
2022-10-18T04:29:16.920Z,83.03
2022-10-18T04:32:05.431Z,98.65
2022-10-18T04:34:46.918Z,78.85
2022-10-18T04:37:35.425Z,66.90
2022-10-18T04:40:17.918Z,83.18
2022-10-18T04:43:06.213Z,78.88
2022-10-18T04:45:47.961Z,73.50
2022-10-18T04:48:36.188Z,43.50
2022-10-18T04:51:18.937Z,44.88
2022-10-18T04:54:08.333Z,51.25
2022-10-18T04:56:49.911Z,41.92
2022-10-18T04:59:32.233Z,37.28
2022-10-18T05:02:20.931Z,37.05
2022-10-18T05:05:11.728Z,44.58
2022-10-18T05:07:56.658Z,57.80
2022-10-18T05:10:39.108Z,47.85
2022-10-18T05:13:27.908Z,57.10
2022-10-18T05:16:10.342Z,56.28
2022-10-18T05:18:58.935Z,64.03
2022-10-18T05:21:47.219Z,56.22
2022-10-18T05:24:28.925Z,44.80
2022-10-18T05:27:12.188Z,48.35
2022-10-18T05:30:04.531Z,62.60
2022-10-18T05:33:00.935Z,56.67
2022-10-18T05:35:50.450Z,49.33
2022-10-18T05:38:32.988Z,46.20
2022-10-18T05:41:23.321Z,50.63
2022-10-18T05:44:05.743Z,46.35
2022-10-18T05:46:54.921Z,55.08
2022-10-18T05:49:37.310Z,53.30
2022-10-18T05:52:25.925Z,50.22
2022-10-18T05:55:08.267Z,52.28
2022-10-18T05:57:59.921Z,40.42
2022-10-18T06:00:42.325Z,50.13
2022-10-18T06:03:31.196Z,49.45
2022-10-18T06:06:16.334Z,55.65
2022-10-18T06:09:04.926Z,44.08
2022-10-18T06:11:47.211Z,58.97
2022-10-18T06:14:35.898Z,47.90
2022-10-18T06:17:19.503Z,48.83
2022-10-18T06:20:07.920Z,42.63
2022-10-18T06:22:50.365Z,46.25
2022-10-18T06:25:38.919Z,36.15
2022-10-18T06:28:21.408Z,46.80
2022-10-18T06:31:09.923Z,33.67
2022-10-18T06:33:52.228Z,40.83
2022-10-18T06:36:40.969Z,41.88
2022-10-18T06:39:23.259Z,36.17
2022-10-18T06:42:11.956Z,47.28
2022-10-18T06:44:54.232Z,37.40
2022-10-18T06:47:42.934Z,40.08
2022-10-18T06:50:25.287Z,42.60
2022-10-18T06:53:15.976Z,36.25
2022-10-18T06:56:04.934Z,37.83
2022-10-18T06:58:53.957Z,30.73
2022-10-18T07:01:36.394Z,37.15
2022-10-18T07:04:25.006Z,42.13
2022-10-18T07:07:07.440Z,34.95
2022-10-18T07:09:56.920Z,39.13
2022-10-18T07:12:40.325Z,47.00
2022-10-18T07:18:19.318Z,43.38
2022-10-18T07:21:11.297Z,41.17
2022-10-18T07:23:54.350Z,37.38
2022-10-18T07:26:44.004Z,46.83
2022-10-18T07:29:32.912Z,45.13
2022-10-18T07:32:28.903Z,37.40
2022-10-18T07:35:17.875Z,33.63
2022-10-18T07:38:00.398Z,33.67
2022-10-18T07:40:48.985Z,40.60
2022-10-18T07:43:31.471Z,37.25
2022-10-18T07:46:20.957Z,35.42
2022-10-18T07:49:03.261Z,28.27
2022-10-18T07:51:51.931Z,36.95
2022-10-18T07:54:41.054Z,29.23
2022-10-18T07:57:30.491Z,31.90
2022-10-18T08:00:13.980Z,38.17
2022-10-18T08:03:06.918Z,35.35
2022-10-18T08:05:49.371Z,29.73
2022-10-18T08:08:39.199Z,25.77
2022-10-18T08:11:33.916Z,26.00
2022-10-18T08:14:16.491Z,31.45
2022-10-18T08:17:05.041Z,29.27
2022-10-18T08:19:58.364Z,35.58
2022-10-18T08:22:59.851Z,29.20
2022-10-18T08:25:42.267Z,33.35
2022-10-18T08:28:31.036Z,28.92
2022-10-18T08:31:22.294Z,29.50
2022-10-18T08:34:07.924Z,37.83
2022-10-18T08:36:56.993Z,30.55
2022-10-18T08:39:39.380Z,26.75
2022-10-18T08:42:44.940Z,24.20
2022-10-18T08:45:48.438Z,28.30
2022-10-18T08:48:47.345Z,33.42
2022-10-18T08:51:49.936Z,28.08
2022-10-18T08:54:34.916Z,34.50
2022-10-18T08:57:25.255Z,24.52
2022-10-18T09:00:07.120Z,37.45
2022-10-18T09:03:25.990Z,29.35
2022-10-18T09:06:38.004Z,29.05
2022-10-18T09:09:47.201Z,39.28
2022-10-18T09:12:29.274Z,37.63
2022-10-18T09:15:29.257Z,37.47
2022-10-18T09:18:40.231Z,34.85
2022-10-18T09:21:39.670Z,27.88
2022-10-18T09:24:42.039Z,31.13
2022-10-18T09:27:42.934Z,27.58
2022-10-18T09:31:16.285Z,33.80
2022-10-18T09:34:08.983Z,29.67
2022-10-18T09:37:00.103Z,33.53
2022-10-18T09:39:50.216Z,29.13
2022-10-18T09:42:43.918Z,28.05
2022-10-18T09:45:34.208Z,28.45
2022-10-18T09:48:28.960Z,24.70
2022-10-18T09:51:18.869Z,34.92
2022-10-18T09:54:37.073Z,42.63
2022-10-18T09:57:31.161Z,27.98
2022-10-18T10:00:29.117Z,29.90
2022-10-18T10:03:15.897Z,32.72
2022-10-18T10:06:18.065Z,33.70
2022-10-18T10:09:13.268Z,27.27
2022-10-18T10:11:58.082Z,29.80
2022-10-18T10:14:52.220Z,23.48
2022-10-18T10:17:37.070Z,24.02
2022-10-18T10:20:37.445Z,30.95
2022-10-18T10:23:54.351Z,30.35
2022-10-18T10:26:43.220Z,29.50
2022-10-18T10:30:07.339Z,32.20
2022-10-18T10:33:01.218Z,23.75
2022-10-18T10:35:53.582Z,25.85
2022-10-18T10:38:36.149Z,27.90
2022-10-18T10:41:38.978Z,21.55
2022-10-18T10:44:24.453Z,27.57
2022-10-18T10:47:13.993Z,26.83
2022-10-18T10:50:04.224Z,29.25
2022-10-18T10:52:48.924Z,23.63
2022-10-18T10:55:36.736Z,24.23
2022-10-18T10:58:32.012Z,31.70
2022-10-18T11:01:36.026Z,29.73
2022-10-18T11:04:26.064Z,30.48
2022-10-18T11:07:26.058Z,23.83
2022-10-18T11:10:19.225Z,35.40
2022-10-18T11:13:21.984Z,33.35
2022-10-18T11:16:21.345Z,24.10
2022-10-18T11:19:05.926Z,27.48
2022-10-18T11:21:48.408Z,32.30
2022-10-18T11:24:38.320Z,38.47
2022-10-18T11:27:34.337Z,28.48
2022-10-18T11:30:38.070Z,24.40
2022-10-18T11:34:07.180Z,30.42
2022-10-18T11:37:26.724Z,30.67
2022-10-18T11:40:29.331Z,26.30
2022-10-18T11:43:38.918Z,27.48
2022-10-18T11:47:32.329Z,35.70
2022-10-18T11:50:27.417Z,35.55
2022-10-18T11:53:31.017Z,32.25
2022-10-18T11:56:13.158Z,28.58
2022-10-18T11:59:33.049Z,34.20
2022-10-18T12:02:27.296Z,33.70
2022-10-18T12:05:23.054Z,33.85
2022-10-18T12:08:45.679Z,34.20
2022-10-18T12:11:43.946Z,35.80
2022-10-18T12:14:48.923Z,29.27
2022-10-18T12:17:49.097Z,32.53
2022-10-18T12:20:36.893Z,31.38
2022-10-18T12:23:55.012Z,33.55
2022-10-18T12:26:44.952Z,33.03
2022-10-18T12:29:33.942Z,35.22
2022-10-18T12:32:33.286Z,33.88
2022-10-18T12:35:26.122Z,36.33
2022-10-18T12:38:14.201Z,39.88
2022-10-18T12:41:02.925Z,31.48
2022-10-18T12:43:45.796Z,33.63
2022-10-18T12:46:56.364Z,46.00
2022-10-18T12:49:45.623Z,36.83
2022-10-18T12:52:37.048Z,36.33
2022-10-18T12:55:20.610Z,38.83
2022-10-18T12:58:30.013Z,37.53
2022-10-18T13:01:21.079Z,44.60
2022-10-18T13:04:09.310Z,42.25
2022-10-18T13:07:16.041Z,35.45
2022-10-18T13:10:16.184Z,44.05
2022-10-18T13:13:47.087Z,33.92
2022-10-18T13:16:56.274Z,35.70
2022-10-18T13:20:33.925Z,45.05
2022-10-18T13:23:44.371Z,41.97
2022-10-18T13:26:58.225Z,43.30
2022-10-18T13:30:08.424Z,39.55
2022-10-18T13:33:01.928Z,45.97
2022-10-18T13:36:07.626Z,48.67
2022-10-18T13:38:59.986Z,47.25
2022-10-18T13:41:55.103Z,50.38
2022-10-18T13:44:48.090Z,55.00
2022-10-18T13:47:46.195Z,59.88
2022-10-18T13:50:49.966Z,58.72
2022-10-18T13:54:10.328Z,58.10
2022-10-18T13:57:17.113Z,84.60
2022-10-18T14:00:26.230Z,70.22
2022-10-18T14:04:02.982Z,75.38
2022-10-18T14:06:50.224Z,67.53
2022-10-18T14:09:55.017Z,64.15
2022-10-18T14:12:48.320Z,60.60
2022-10-18T14:15:51.986Z,66.68
2022-10-18T14:18:40.382Z,73.63
2022-10-18T14:21:37.978Z,73.13
2022-10-18T14:24:48.227Z,64.63
2022-10-18T14:27:41.028Z,64.28
2022-10-18T14:30:25.452Z,81.93
2022-10-18T14:33:14.355Z,70.95
2022-10-18T14:36:17.548Z,70.82
2022-10-18T14:39:09.117Z,64.68
2022-10-18T14:42:03.275Z,67.85
2022-10-18T14:44:59.158Z,65.82
2022-10-18T14:47:45.343Z,57.72
2022-10-18T14:50:37.038Z,66.90
2022-10-18T14:53:36.945Z,58.97
2022-10-18T14:56:45.063Z,64.82
2022-10-18T14:59:35.296Z,63.05
2022-10-18T15:02:32.267Z,62.55
2022-10-18T15:05:32.324Z,62.13
2022-10-18T15:08:21.011Z,58.35
2022-10-18T15:11:04.423Z,66.25
2022-10-18T15:14:01.928Z,62.60
2022-10-18T15:16:53.025Z,64.93
2022-10-18T15:19:40.539Z,61.20
2022-10-18T15:22:39.052Z,63.28
2022-10-18T15:25:31.786Z,69.32
2022-10-18T15:28:21.018Z,66.18
2022-10-18T15:31:10.915Z,61.65
2022-10-18T15:34:06.907Z,65.55
2022-10-18T15:36:57.943Z,55.03
2022-10-18T15:39:40.317Z,59.10
2022-10-18T15:42:46.925Z,63.42
2022-10-18T15:45:32.980Z,63.55
2022-10-18T15:48:30.034Z,66.68
2022-10-18T15:51:22.037Z,61.03
2022-10-18T15:54:04.256Z,64.63
2022-10-18T15:56:54.065Z,71.30
2022-10-18T15:59:46.453Z,67.03
2022-10-18T16:02:28.923Z,64.10
2022-10-18T16:05:20.225Z,60.88
2022-10-18T16:08:09.925Z,66.03
2022-10-18T16:10:52.600Z,72.03
2022-10-18T16:13:43.755Z,58.58
2022-10-18T16:16:36.473Z,53.60
2022-10-18T16:19:34.074Z,52.88
2022-10-18T16:22:29.503Z,45.45
2022-10-18T16:25:13.916Z,41.88
2022-10-18T16:28:03.031Z,40.88
2022-10-18T16:30:45.385Z,44.17
2022-10-18T16:33:35.045Z,37.05
2022-10-18T16:36:33.013Z,42.72
2022-10-18T16:39:27.015Z,38.17
2022-10-18T16:42:09.203Z,41.45
2022-10-18T16:44:58.072Z,42.22
2022-10-18T16:47:40.222Z,40.47
2022-10-18T16:50:33.085Z,44.08
2022-10-18T16:53:23.951Z,44.45
2022-10-18T16:56:21.062Z,36.65
2022-10-18T16:59:10.389Z,36.15
2022-10-18T17:01:52.967Z,43.95
2022-10-18T17:04:41.951Z,48.25
2022-10-18T17:07:39.033Z,50.88
2022-10-18T17:10:29.353Z,40.80
2022-10-18T17:13:12.056Z,38.13
2022-10-18T17:16:01.388Z,42.65
2022-10-18T17:18:43.918Z,34.28
2022-10-18T17:21:27.117Z,42.85
2022-10-18T17:24:16.013Z,38.50
2022-10-18T17:27:05.050Z,39.10
2022-10-18T17:29:48.436Z,44.63
2022-10-18T17:32:37.513Z,43.13
2022-10-18T17:35:21.301Z,38.55
2022-10-18T17:38:09.913Z,41.97
2022-10-18T17:41:00.982Z,34.83
2022-10-18T17:43:49.975Z,34.22
2022-10-18T17:46:38.973Z,33.15
2022-10-18T17:49:22.871Z,48.53
2022-10-18T17:52:12.164Z,36.03
2022-10-18T17:54:54.301Z,39.75
2022-10-18T17:57:42.949Z,43.30
2022-10-18T18:00:32.113Z,33.92
2022-10-18T18:03:14.678Z,30.77
2022-10-18T18:06:03.930Z,44.53
2022-10-18T18:08:52.989Z,34.28
2022-10-18T18:11:44.611Z,41.20
2022-10-18T18:14:28.055Z,36.97
2022-10-18T18:17:24.808Z,32.22
2022-10-18T18:20:19.912Z,35.65
2022-10-18T18:23:02.398Z,28.05
2022-10-18T18:25:50.940Z,25.75
2022-10-18T18:28:33.340Z,31.05
2022-10-18T18:31:23.977Z,36.92
2022-10-18T18:34:12.979Z,28.95
2022-10-18T18:37:01.906Z,26.02
2022-10-18T18:39:44.422Z,20.15
2022-10-18T18:42:33.152Z,20.92
2022-10-18T18:45:15.410Z,20.38
2022-10-18T18:48:03.985Z,26.38
2022-10-18T18:50:59.028Z,18.73
2022-10-18T18:53:47.922Z,17.85
2022-10-18T18:56:37.015Z,21.23
2022-10-18T18:59:22.368Z,21.50
2022-10-18T19:02:10.895Z,18.83
2022-10-18T19:04:59.926Z,13.52
2022-10-18T19:07:48.895Z,15.38
2022-10-18T19:10:31.219Z,20.88
2022-10-18T19:13:19.903Z,13.65
2022-10-18T19:16:44.907Z,15.60
2022-10-18T19:19:38.963Z,18.17
2022-10-18T19:22:21.214Z,18.17
2022-10-18T19:25:09.985Z,17.17
2022-10-18T19:27:52.176Z,16.85
2022-10-18T19:30:40.972Z,15.52
2022-10-18T19:33:41.111Z,15.27
2022-10-18T19:36:31.948Z,14.13
2022-10-18T19:39:16.174Z,16.65
2022-10-18T19:42:06.891Z,15.48
2022-10-18T19:44:50.376Z,16.67
2022-10-18T19:47:38.917Z,27.08
2022-10-18T19:50:27.972Z,15.70
2022-10-18T19:53:10.152Z,12.82
2022-10-18T19:55:58.906Z,12.05
2022-10-18T19:58:41.259Z,15.48
2022-10-18T20:01:30.934Z,12.25
2022-10-18T20:04:14.919Z,14.80
2022-10-18T20:07:04.898Z,15.93
2022-10-18T20:09:48.992Z,11.25
2022-10-18T20:12:37.908Z,13.90
2022-10-18T20:15:20.098Z,8.98
2022-10-18T20:18:10.909Z,12.60
2022-10-18T20:20:53.399Z,9.85
2022-10-18T20:23:41.962Z,11.10
2022-10-18T20:26:31.208Z,11.88
2022-10-18T20:29:15.049Z,12.65
2022-10-18T20:32:09.760Z,11.25
2022-10-18T20:34:58.904Z,8.05
2022-10-18T20:37:42.194Z,11.38
2022-10-18T20:40:30.958Z,8.40
2022-10-18T20:43:13.176Z,8.20
2022-10-18T20:46:05.975Z,10.10
2022-10-18T20:48:48.370Z,8.55
2022-10-18T20:51:36.896Z,6.88
2022-10-18T20:54:27.804Z,13.75
2022-10-18T20:57:16.908Z,5.70
2022-10-18T21:00:05.787Z,11.80
2022-10-18T21:02:54.941Z,9.80
2022-10-18T21:05:38.167Z,10.23
2022-10-18T21:08:26.895Z,6.05
2022-10-18T21:11:09.195Z,8.65
2022-10-18T21:14:01.949Z,5.90
2022-10-18T21:16:45.206Z,7.07
2022-10-18T21:19:35.886Z,10.10
2022-10-18T21:22:24.891Z,11.13
2022-10-18T21:25:07.674Z,10.65
2022-10-18T21:27:56.888Z,6.32
2022-10-18T21:30:45.881Z,5.97
2022-10-18T21:33:34.164Z,8.27
2022-10-18T21:36:16.872Z,7.25
2022-10-18T21:38:59.129Z,6.97
2022-10-18T21:41:48.886Z,10.07
2022-10-18T21:44:37.868Z,7.25
2022-10-18T21:47:20.224Z,3.67
2022-10-18T21:50:08.867Z,6.38
2022-10-18T21:52:57.803Z,9.13
2022-10-18T21:55:47.888Z,4.55
2022-10-18T21:58:30.211Z,8.80
2022-10-18T22:01:24.005Z,7.55
2022-10-18T22:06:54.883Z,5.65
2022-10-18T22:09:37.204Z,6.70
2022-10-18T22:12:25.870Z,8.45
2022-10-18T22:15:14.772Z,9.30
2022-10-18T22:18:03.866Z,4.82
2022-10-18T22:20:46.188Z,6.18
2022-10-18T22:23:40.922Z,9.10
2022-10-18T22:26:47.189Z,3.95
2022-10-18T22:29:35.860Z,4.57
2022-10-18T22:32:24.785Z,5.63
2022-10-18T22:35:13.878Z,3.20
2022-10-18T22:38:02.798Z,3.30
2022-10-18T22:40:51.791Z,6.53
2022-10-18T22:43:43.769Z,9.70
2022-10-18T22:46:33.908Z,4.97
2022-10-18T22:49:16.323Z,5.95
2022-10-18T22:52:04.938Z,8.93
2022-10-18T22:54:47.162Z,10.50
2022-10-18T22:57:37.933Z,4.60
2022-10-18T23:00:21.187Z,3.42
2022-10-18T23:03:09.872Z,5.27
2022-10-18T23:06:00.880Z,6.13
2022-10-18T23:08:43.084Z,2.90
2022-10-18T23:11:32.930Z,6.05
2022-10-18T23:14:21.201Z,5.70
2022-10-18T23:17:03.873Z,3.85
2022-10-18T23:19:46.090Z,9.68
2022-10-18T23:22:35.116Z,5.20
2022-10-18T23:25:17.199Z,5.85
2022-10-18T23:28:05.885Z,6.38
2022-10-18T23:30:48.092Z,4.57
2022-10-18T23:33:36.883Z,7.07
2022-10-18T23:36:19.651Z,7.78
2022-10-18T23:39:09.875Z,3.38
2022-10-18T23:41:58.857Z,4.78
2022-10-18T23:44:41.175Z,8.63
2022-10-18T23:47:30.082Z,7.53
2022-10-18T23:50:13.345Z,5.43
2022-10-18T23:53:01.893Z,3.05
2022-10-18T23:55:44.122Z,4.13
2022-10-18T23:58:33.955Z,6.15
